sensor_id;sensor_type;location;lat;lon;timestamp;P1;durP1;ratioP1;P2;durP2;ratioP2
68825;SDS011;55841;53.392;10.086;2023-01-15T00:00:41;4.15;;;0.85;;
68825;SDS011;55841;53.392;10.086;2023-01-15T00:03:07;3.55;;;0.90;;
68825;SDS011;55841;53.392;10.086;2023-01-15T00:05:35;2.85;;;0.73;;
68825;SDS011;55841;53.392;10.086;2023-01-15T00:08:01;2.67;;;0.68;;
68825;SDS011;55841;53.392;10.086;2023-01-15T00:10:26;3.70;;;0.70;;
68825;SDS011;55841;53.392;10.086;2023-01-15T00:12:52;2.25;;;0.60;;
68825;SDS011;55841;53.392;10.086;2023-01-15T00:15:18;2.45;;;0.40;;
68825;SDS011;55841;53.392;10.086;2023-01-15T00:17:43;3.53;;;0.50;;
68825;SDS011;55841;53.392;10.086;2023-01-15T00:20:09;1.73;;;0.65;;
68825;SDS011;55841;53.392;10.086;2023-01-15T00:22:35;3.60;;;0.60;;
68825;SDS011;55841;53.392;10.086;2023-01-15T00:25:01;2.20;;;0.40;;
68825;SDS011;55841;53.392;10.086;2023-01-15T00:27:26;3.53;;;0.70;;
68825;SDS011;55841;53.392;10.086;2023-01-15T00:29:51;3.83;;;0.52;;
68825;SDS011;55841;53.392;10.086;2023-01-15T00:32:17;3.40;;;0.73;;
68825;SDS011;55841;53.392;10.086;2023-01-15T00:34:42;2.97;;;0.57;;
68825;SDS011;55841;53.392;10.086;2023-01-15T00:37:08;2.72;;;0.80;;
68825;SDS011;55841;53.392;10.086;2023-01-15T00:39:34;5.25;;;0.60;;
68825;SDS011;55841;53.392;10.086;2023-01-15T00:41:59;4.68;;;0.85;;
68825;SDS011;55841;53.392;10.086;2023-01-15T00:44:25;1.90;;;0.70;;
68825;SDS011;55841;53.392;10.086;2023-01-15T00:46:50;3.70;;;0.65;;
68825;SDS011;55841;53.392;10.086;2023-01-15T00:49:16;5.28;;;0.90;;
68825;SDS011;55841;53.392;10.086;2023-01-15T00:51:41;1.88;;;0.80;;
68825;SDS011;55841;53.392;10.086;2023-01-15T00:54:07;4.40;;;0.52;;
68825;SDS011;55841;53.392;10.086;2023-01-15T00:56:32;4.60;;;0.70;;
68825;SDS011;55841;53.392;10.086;2023-01-15T00:58:59;3.47;;;0.80;;
68825;SDS011;55841;53.392;10.086;2023-01-15T01:01:26;2.92;;;0.75;;
68825;SDS011;55841;53.392;10.086;2023-01-15T01:03:51;4.07;;;0.70;;
68825;SDS011;55841;53.392;10.086;2023-01-15T01:06:17;5.30;;;0.90;;
68825;SDS011;55841;53.392;10.086;2023-01-15T01:08:44;4.68;;;0.82;;
68825;SDS011;55841;53.392;10.086;2023-01-15T01:11:11;2.50;;;0.63;;
68825;SDS011;55841;53.392;10.086;2023-01-15T01:13:39;2.58;;;0.63;;
68825;SDS011;55841;53.392;10.086;2023-01-15T01:16:17;2.33;;;0.55;;
68825;SDS011;55841;53.392;10.086;2023-01-15T01:18:53;3.55;;;0.68;;
68825;SDS011;55841;53.392;10.086;2023-01-15T01:21:19;3.08;;;0.82;;
68825;SDS011;55841;53.392;10.086;2023-01-15T01:23:44;1.85;;;0.68;;
68825;SDS011;55841;53.392;10.086;2023-01-15T01:26:10;3.08;;;0.88;;
68825;SDS011;55841;53.392;10.086;2023-01-15T01:28:35;2.15;;;0.73;;
68825;SDS011;55841;53.392;10.086;2023-01-15T01:31:07;3.67;;;0.85;;
68825;SDS011;55841;53.392;10.086;2023-01-15T01:33:33;3.63;;;0.73;;
68825;SDS011;55841;53.392;10.086;2023-01-15T01:36:00;2.47;;;0.60;;
68825;SDS011;55841;53.392;10.086;2023-01-15T01:38:25;7.72;;;0.98;;
68825;SDS011;55841;53.392;10.086;2023-01-15T01:40:51;4.85;;;1.02;;
68825;SDS011;55841;53.392;10.086;2023-01-15T01:43:21;2.70;;;0.82;;
68825;SDS011;55841;53.392;10.086;2023-01-15T01:45:50;4.32;;;0.77;;
68825;SDS011;55841;53.392;10.086;2023-01-15T01:48:17;2.85;;;0.60;;
68825;SDS011;55841;53.392;10.086;2023-01-15T01:50:46;4.60;;;0.90;;
68825;SDS011;55841;53.392;10.086;2023-01-15T01:53:15;3.08;;;0.90;;
68825;SDS011;55841;53.392;10.086;2023-01-15T01:55:44;5.00;;;0.95;;
68825;SDS011;55841;53.392;10.086;2023-01-15T01:58:11;2.13;;;0.82;;
68825;SDS011;55841;53.392;10.086;2023-01-15T02:00:38;4.10;;;0.93;;
68825;SDS011;55841;53.392;10.086;2023-01-15T02:03:08;4.03;;;1.00;;
68825;SDS011;55841;53.392;10.086;2023-01-15T02:05:39;5.88;;;0.90;;
68825;SDS011;55841;53.392;10.086;2023-01-15T02:08:09;3.95;;;1.52;;
68825;SDS011;55841;53.392;10.086;2023-01-15T02:10:35;3.63;;;0.70;;
68825;SDS011;55841;53.392;10.086;2023-01-15T02:15:49;5.13;;;1.10;;
68825;SDS011;55841;53.392;10.086;2023-01-15T02:18:57;1.73;;;0.68;;
68825;SDS011;55841;53.392;10.086;2023-01-15T02:24:16;5.43;;;0.90;;
68825;SDS011;55841;53.392;10.086;2023-01-15T02:32:38;5.25;;;1.00;;
68825;SDS011;55841;53.392;10.086;2023-01-15T02:35:22;8.88;;;1.08;;
68825;SDS011;55841;53.392;10.086;2023-01-15T02:37:54;6.75;;;1.17;;
68825;SDS011;55841;53.392;10.086;2023-01-15T02:40:23;6.30;;;1.10;;
68825;SDS011;55841;53.392;10.086;2023-01-15T02:42:51;5.15;;;1.40;;
68825;SDS011;55841;53.392;10.086;2023-01-15T02:45:22;2.88;;;0.80;;
68825;SDS011;55841;53.392;10.086;2023-01-15T02:47:51;6.47;;;1.20;;
68825;SDS011;55841;53.392;10.086;2023-01-15T02:50:21;9.18;;;1.30;;
68825;SDS011;55841;53.392;10.086;2023-01-15T02:52:51;2.92;;;0.70;;
68825;SDS011;55841;53.392;10.086;2023-01-15T02:55:26;6.30;;;1.23;;
68825;SDS011;55841;53.392;10.086;2023-01-15T02:57:58;10.25;;;1.02;;
68825;SDS011;55841;53.392;10.086;2023-01-15T03:00:25;5.80;;;0.90;;
68825;SDS011;55841;53.392;10.086;2023-01-15T03:03:02;3.38;;;0.93;;
68825;SDS011;55841;53.392;10.086;2023-01-15T03:05:39;6.47;;;0.90;;
68825;SDS011;55841;53.392;10.086;2023-01-15T03:08:15;6.82;;;1.20;;
68825;SDS011;55841;53.392;10.086;2023-01-15T03:10:47;8.38;;;1.58;;
68825;SDS011;55841;53.392;10.086;2023-01-15T03:13:43;4.35;;;0.65;;
68825;SDS011;55841;53.392;10.086;2023-01-15T03:24:04;7.72;;;1.02;;
68825;SDS011;55841;53.392;10.086;2023-01-15T03:26:31;6.72;;;1.25;;
68825;SDS011;55841;53.392;10.086;2023-01-15T03:28:57;4.32;;;1.08;;
68825;SDS011;55841;53.392;10.086;2023-01-15T03:33:49;5.38;;;1.35;;
68825;SDS011;55841;53.392;10.086;2023-01-15T03:36:15;8.85;;;1.63;;
68825;SDS011;55841;53.392;10.086;2023-01-15T03:38:40;6.80;;;1.35;;
68825;SDS011;55841;53.392;10.086;2023-01-15T03:41:09;6.55;;;1.67;;
68825;SDS011;55841;53.392;10.086;2023-01-15T03:44:13;9.95;;;1.23;;
68825;SDS011;55841;53.392;10.086;2023-01-15T03:46:49;6.82;;;1.80;;
68825;SDS011;55841;53.392;10.086;2023-01-15T03:52:04;4.13;;;1.15;;
68825;SDS011;55841;53.392;10.086;2023-01-15T03:54:56;4.07;;;1.10;;
68825;SDS011;55841;53.392;10.086;2023-01-15T04:00:33;4.72;;;1.25;;
68825;SDS011;55841;53.392;10.086;2023-01-15T04:03:03;5.18;;;1.23;;
68825;SDS011;55841;53.392;10.086;2023-01-15T04:05:31;6.80;;;1.40;;
68825;SDS011;55841;53.392;10.086;2023-01-15T04:08:00;6.85;;;1.70;;
68825;SDS011;55841;53.392;10.086;2023-01-15T04:10:26;6.70;;;1.38;;
68825;SDS011;55841;53.392;10.086;2023-01-15T04:12:52;10.43;;;1.08;;
68825;SDS011;55841;53.392;10.086;2023-01-15T04:15:17;11.35;;;1.52;;
68825;SDS011;55841;53.392;10.086;2023-01-15T04:17:43;5.82;;;0.98;;
68825;SDS011;55841;53.392;10.086;2023-01-15T04:20:09;5.75;;;0.98;;
68825;SDS011;55841;53.392;10.086;2023-01-15T04:22:35;8.07;;;1.45;;
68825;SDS011;55841;53.392;10.086;2023-01-15T04:25:01;7.70;;;1.45;;
68825;SDS011;55841;53.392;10.086;2023-01-15T04:27:28;7.93;;;1.90;;
68825;SDS011;55841;53.392;10.086;2023-01-15T04:29:53;9.27;;;1.30;;
68825;SDS011;55841;53.392;10.086;2023-01-15T04:32:19;10.48;;;1.48;;
68825;SDS011;55841;53.392;10.086;2023-01-15T04:34:44;7.60;;;1.50;;
68825;SDS011;55841;53.392;10.086;2023-01-15T04:37:10;7.45;;;1.25;;
68825;SDS011;55841;53.392;10.086;2023-01-15T04:39:35;9.77;;;1.58;;
68825;SDS011;55841;53.392;10.086;2023-01-15T04:42:01;7.75;;;1.42;;
68825;SDS011;55841;53.392;10.086;2023-01-15T04:44:26;6.78;;;1.52;;
68825;SDS011;55841;53.392;10.086;2023-01-15T04:46:52;5.80;;;1.45;;
68825;SDS011;55841;53.392;10.086;2023-01-15T04:49:18;6.38;;;1.45;;
68825;SDS011;55841;53.392;10.086;2023-01-15T04:51:43;6.47;;;1.20;;
68825;SDS011;55841;53.392;10.086;2023-01-15T04:54:10;5.68;;;1.20;;
68825;SDS011;55841;53.392;10.086;2023-01-15T04:56:38;9.05;;;1.73;;
68825;SDS011;55841;53.392;10.086;2023-01-15T04:59:05;5.78;;;1.35;;
68825;SDS011;55841;53.392;10.086;2023-01-15T05:01:31;7.50;;;1.80;;
68825;SDS011;55841;53.392;10.086;2023-01-15T05:03:57;10.00;;;1.60;;
68825;SDS011;55841;53.392;10.086;2023-01-15T05:06:22;7.82;;;1.35;;
68825;SDS011;55841;53.392;10.086;2023-01-15T05:08:51;10.30;;;1.85;;
68825;SDS011;55841;53.392;10.086;2023-01-15T05:11:17;7.65;;;1.50;;
68825;SDS011;55841;53.392;10.086;2023-01-15T05:13:42;5.20;;;1.10;;
68825;SDS011;55841;53.392;10.086;2023-01-15T05:18:38;7.95;;;1.45;;
68825;SDS011;55841;53.392;10.086;2023-01-15T05:21:03;9.93;;;1.58;;
68825;SDS011;55841;53.392;10.086;2023-01-15T05:23:30;10.40;;;1.67;;
68825;SDS011;55841;53.392;10.086;2023-01-15T05:25:55;8.80;;;1.40;;
68825;SDS011;55841;53.392;10.086;2023-01-15T05:28:21;7.22;;;1.65;;
68825;SDS011;55841;53.392;10.086;2023-01-15T05:30:46;10.15;;;1.60;;
68825;SDS011;55841;53.392;10.086;2023-01-15T05:33:12;8.77;;;1.40;;
68825;SDS011;55841;53.392;10.086;2023-01-15T05:35:38;9.15;;;1.63;;
68825;SDS011;55841;53.392;10.086;2023-01-15T05:38:03;7.82;;;1.30;;
68825;SDS011;55841;53.392;10.086;2023-01-15T05:40:29;11.90;;;1.77;;
68825;SDS011;55841;53.392;10.086;2023-01-15T05:42:54;8.25;;;1.70;;
68825;SDS011;55841;53.392;10.086;2023-01-15T05:45:20;5.82;;;1.10;;
68825;SDS011;55841;53.392;10.086;2023-01-15T05:47:45;10.00;;;1.70;;
68825;SDS011;55841;53.392;10.086;2023-01-15T05:50:10;8.15;;;1.55;;
68825;SDS011;55841;53.392;10.086;2023-01-15T05:52:36;7.88;;;1.60;;
68825;SDS011;55841;53.392;10.086;2023-01-15T05:55:01;7.40;;;1.33;;
68825;SDS011;55841;53.392;10.086;2023-01-15T05:57:27;7.72;;;1.38;;
68825;SDS011;55841;53.392;10.086;2023-01-15T05:59:52;6.93;;;1.70;;
68825;SDS011;55841;53.392;10.086;2023-01-15T06:02:18;7.93;;;1.92;;
68825;SDS011;55841;53.392;10.086;2023-01-15T06:04:43;7.78;;;1.73;;
68825;SDS011;55841;53.392;10.086;2023-01-15T06:07:09;11.95;;;1.98;;
68825;SDS011;55841;53.392;10.086;2023-01-15T06:09:34;7.30;;;1.67;;
68825;SDS011;55841;53.392;10.086;2023-01-15T06:12:00;5.75;;;1.30;;
68825;SDS011;55841;53.392;10.086;2023-01-15T06:14:25;8.07;;;1.73;;
68825;SDS011;55841;53.392;10.086;2023-01-15T06:16:51;9.48;;;1.50;;
68825;SDS011;55841;53.392;10.086;2023-01-15T06:19:16;6.10;;;1.50;;
68825;SDS011;55841;53.392;10.086;2023-01-15T06:21:42;6.32;;;1.10;;
68825;SDS011;55841;53.392;10.086;2023-01-15T06:24:07;7.43;;;1.45;;
68825;SDS011;55841;53.392;10.086;2023-01-15T06:26:33;6.07;;;1.27;;
68825;SDS011;55841;53.392;10.086;2023-01-15T06:28:59;4.68;;;1.10;;
68825;SDS011;55841;53.392;10.086;2023-01-15T06:31:24;7.53;;;1.45;;
68825;SDS011;55841;53.392;10.086;2023-01-15T06:33:50;9.93;;;1.23;;
68825;SDS011;55841;53.392;10.086;2023-01-15T06:36:17;4.63;;;1.13;;
68825;SDS011;55841;53.392;10.086;2023-01-15T06:38:44;8.95;;;1.60;;
68825;SDS011;55841;53.392;10.086;2023-01-15T06:41:14;10.25;;;1.85;;
68825;SDS011;55841;53.392;10.086;2023-01-15T06:43:44;7.72;;;1.67;;
68825;SDS011;55841;53.392;10.086;2023-01-15T06:46:09;6.93;;;1.70;;
68825;SDS011;55841;53.392;10.086;2023-01-15T06:48:35;5.28;;;1.33;;
68825;SDS011;55841;53.392;10.086;2023-01-15T06:51:00;6.45;;;1.48;;
68825;SDS011;55841;53.392;10.086;2023-01-15T06:53:26;5.18;;;1.50;;
68825;SDS011;55841;53.392;10.086;2023-01-15T06:55:51;7.50;;;2.03;;
68825;SDS011;55841;53.392;10.086;2023-01-15T06:58:17;8.40;;;1.83;;
68825;SDS011;55841;53.392;10.086;2023-01-15T07:00:42;10.35;;;1.60;;
68825;SDS011;55841;53.392;10.086;2023-01-15T07:03:08;8.88;;;1.88;;
68825;SDS011;55841;53.392;10.086;2023-01-15T07:05:33;5.55;;;1.70;;
68825;SDS011;55841;53.392;10.086;2023-01-15T07:08:02;6.75;;;1.48;;
68825;SDS011;55841;53.392;10.086;2023-01-15T07:10:28;6.88;;;1.67;;
68825;SDS011;55841;53.392;10.086;2023-01-15T07:12:53;8.18;;;1.65;;
68825;SDS011;55841;53.392;10.086;2023-01-15T07:15:18;10.25;;;1.95;;
68825;SDS011;55841;53.392;10.086;2023-01-15T07:17:44;9.55;;;1.95;;
68825;SDS011;55841;53.392;10.086;2023-01-15T07:20:10;10.23;;;1.73;;
68825;SDS011;55841;53.392;10.086;2023-01-15T07:22:36;8.05;;;1.52;;
68825;SDS011;55841;53.392;10.086;2023-01-15T07:25:01;6.13;;;1.25;;
68825;SDS011;55841;53.392;10.086;2023-01-15T07:27:27;11.15;;;2.28;;
68825;SDS011;55841;53.392;10.086;2023-01-15T07:29:52;10.45;;;1.88;;
68825;SDS011;55841;53.392;10.086;2023-01-15T07:32:18;10.73;;;2.13;;
68825;SDS011;55841;53.392;10.086;2023-01-15T07:34:43;8.38;;;1.90;;
68825;SDS011;55841;53.392;10.086;2023-01-15T07:37:09;6.97;;;1.45;;
68825;SDS011;55841;53.392;10.086;2023-01-15T07:39:35;7.97;;;1.52;;
68825;SDS011;55841;53.392;10.086;2023-01-15T07:42:01;7.47;;;1.60;;
68825;SDS011;55841;53.392;10.086;2023-01-15T07:44:26;16.02;;;1.98;;
68825;SDS011;55841;53.392;10.086;2023-01-15T07:46:52;9.82;;;2.28;;
68825;SDS011;55841;53.392;10.086;2023-01-15T07:51:44;11.38;;;1.58;;
68825;SDS011;55841;53.392;10.086;2023-01-15T07:54:09;7.40;;;1.45;;
68825;SDS011;55841;53.392;10.086;2023-01-15T07:56:35;7.78;;;1.90;;
68825;SDS011;55841;53.392;10.086;2023-01-15T07:59:01;10.18;;;1.77;;
68825;SDS011;55841;53.392;10.086;2023-01-15T08:01:26;9.02;;;1.40;;
68825;SDS011;55841;53.392;10.086;2023-01-15T08:03:52;9.52;;;1.55;;
68825;SDS011;55841;53.392;10.086;2023-01-15T08:06:17;9.65;;;1.75;;
68825;SDS011;55841;53.392;10.086;2023-01-15T08:08:43;8.43;;;1.90;;
68825;SDS011;55841;53.392;10.086;2023-01-15T08:11:08;7.47;;;1.60;;
68825;SDS011;55841;53.392;10.086;2023-01-15T08:13:34;8.57;;;1.60;;
68825;SDS011;55841;53.392;10.086;2023-01-15T08:16:00;4.68;;;1.52;;
68825;SDS011;55841;53.392;10.086;2023-01-15T08:18:25;7.95;;;1.40;;
68825;SDS011;55841;53.392;10.086;2023-01-15T08:20:51;12.00;;;2.17;;
68825;SDS011;55841;53.392;10.086;2023-01-15T08:23:16;8.25;;;1.63;;
68825;SDS011;55841;53.392;10.086;2023-01-15T08:25:42;9.90;;;1.80;;
68825;SDS011;55841;53.392;10.086;2023-01-15T08:28:07;9.98;;;1.90;;
68825;SDS011;55841;53.392;10.086;2023-01-15T08:30:33;7.80;;;1.55;;
68825;SDS011;55841;53.392;10.086;2023-01-15T08:32:59;8.18;;;1.95;;
68825;SDS011;55841;53.392;10.086;2023-01-15T08:35:25;7.10;;;1.33;;
68825;SDS011;55841;53.392;10.086;2023-01-15T08:37:50;9.52;;;1.85;;
68825;SDS011;55841;53.392;10.086;2023-01-15T08:40:16;8.00;;;1.65;;
68825;SDS011;55841;53.392;10.086;2023-01-15T08:42:41;6.45;;;1.70;;
68825;SDS011;55841;53.392;10.086;2023-01-15T08:45:07;11.13;;;1.73;;
68825;SDS011;55841;53.392;10.086;2023-01-15T08:47:33;6.75;;;1.52;;
68825;SDS011;55841;53.392;10.086;2023-01-15T08:49:59;3.72;;;1.02;;
68825;SDS011;55841;53.392;10.086;2023-01-15T08:52:24;12.85;;;2.13;;
68825;SDS011;55841;53.392;10.086;2023-01-15T08:54:50;15.85;;;1.88;;
68825;SDS011;55841;53.392;10.086;2023-01-15T08:57:15;9.75;;;1.40;;
68825;SDS011;55841;53.392;10.086;2023-01-15T08:59:41;5.93;;;1.58;;
68825;SDS011;55841;53.392;10.086;2023-01-15T09:02:08;9.95;;;1.90;;
68825;SDS011;55841;53.392;10.086;2023-01-15T09:04:36;9.48;;;1.50;;
68825;SDS011;55841;53.392;10.086;2023-01-15T09:07:02;10.25;;;1.85;;
68825;SDS011;55841;53.392;10.086;2023-01-15T09:09:28;12.20;;;1.83;;
68825;SDS011;55841;53.392;10.086;2023-01-15T09:11:53;9.82;;;2.00;;
68825;SDS011;55841;53.392;10.086;2023-01-15T09:14:19;11.68;;;1.60;;
68825;SDS011;55841;53.392;10.086;2023-01-15T09:16:45;3.65;;;1.17;;
68825;SDS011;55841;53.392;10.086;2023-01-15T09:19:10;7.35;;;1.25;;
68825;SDS011;55841;53.392;10.086;2023-01-15T09:21:36;4.38;;;1.30;;
68825;SDS011;55841;53.392;10.086;2023-01-15T09:24:02;11.25;;;1.60;;
68825;SDS011;55841;53.392;10.086;2023-01-15T09:26:31;11.07;;;1.55;;
68825;SDS011;55841;53.392;10.086;2023-01-15T09:28:58;7.40;;;1.40;;
68825;SDS011;55841;53.392;10.086;2023-01-15T09:31:24;8.60;;;1.23;;
68825;SDS011;55841;53.392;10.086;2023-01-15T09:33:51;8.23;;;1.10;;
68825;SDS011;55841;53.392;10.086;2023-01-15T09:38:51;5.38;;;1.08;;
68825;SDS011;55841;53.392;10.086;2023-01-15T09:41:16;5.45;;;1.10;;
68825;SDS011;55841;53.392;10.086;2023-01-15T09:43:48;6.47;;;0.93;;
68825;SDS011;55841;53.392;10.086;2023-01-15T09:46:36;5.00;;;0.90;;
68825;SDS011;55841;53.392;10.086;2023-01-15T09:52:07;1.10;;;0.40;;
68825;SDS011;55841;53.392;10.086;2023-01-15T09:55:07;5.38;;;1.00;;
68825;SDS011;55841;53.392;10.086;2023-01-15T09:57:42;7.05;;;1.30;;
68825;SDS011;55841;53.392;10.086;2023-01-15T10:00:12;8.27;;;1.40;;
68825;SDS011;55841;53.392;10.086;2023-01-15T10:02:45;8.98;;;1.83;;
68825;SDS011;55841;53.392;10.086;2023-01-15T10:05:16;6.00;;;1.27;;
68825;SDS011;55841;53.392;10.086;2023-01-15T10:10:19;6.22;;;0.90;;
68825;SDS011;55841;53.392;10.086;2023-01-15T10:12:48;4.78;;;1.13;;
68825;SDS011;55841;53.392;10.086;2023-01-15T10:15:23;1.63;;;0.93;;
68825;SDS011;55841;53.392;10.086;2023-01-15T10:18:22;8.60;;;1.73;;
68825;SDS011;55841;53.392;10.086;2023-01-15T10:26:41;6.65;;;1.33;;
68825;SDS011;55841;53.392;10.086;2023-01-15T10:45:35;12.93;;;1.52;;
68825;SDS011;55841;53.392;10.086;2023-01-15T10:51:05;6.63;;;1.42;;
68825;SDS011;55841;53.392;10.086;2023-01-15T10:53:59;5.10;;;0.88;;
68825;SDS011;55841;53.392;10.086;2023-01-15T10:58:59;5.25;;;1.10;;
68825;SDS011;55841;53.392;10.086;2023-01-15T11:01:27;5.97;;;1.10;;
68825;SDS011;55841;53.392;10.086;2023-01-15T11:03:52;8.25;;;1.58;;
68825;SDS011;55841;53.392;10.086;2023-01-15T11:06:20;9.50;;;1.40;;
68825;SDS011;55841;53.392;10.086;2023-01-15T11:08:51;5.15;;;1.02;;
68825;SDS011;55841;53.392;10.086;2023-01-15T11:11:20;3.85;;;0.75;;
68825;SDS011;55841;53.392;10.086;2023-01-15T11:13:58;5.40;;;1.13;;
68825;SDS011;55841;53.392;10.086;2023-01-15T11:16:24;7.28;;;1.40;;
68825;SDS011;55841;53.392;10.086;2023-01-15T11:18:50;8.80;;;1.45;;
68825;SDS011;55841;53.392;10.086;2023-01-15T11:21:18;8.95;;;1.27;;
68825;SDS011;55841;53.392;10.086;2023-01-15T11:23:45;3.33;;;0.98;;
68825;SDS011;55841;53.392;10.086;2023-01-15T11:26:22;5.93;;;1.30;;
68825;SDS011;55841;53.392;10.086;2023-01-15T11:28:53;5.38;;;1.15;;
68825;SDS011;55841;53.392;10.086;2023-01-15T11:31:20;5.50;;;1.00;;
68825;SDS011;55841;53.392;10.086;2023-01-15T11:36:25;7.10;;;1.45;;
68825;SDS011;55841;53.392;10.086;2023-01-15T11:38:52;10.10;;;1.55;;
68825;SDS011;55841;53.392;10.086;2023-01-15T11:41:28;6.57;;;0.98;;
68825;SDS011;55841;53.392;10.086;2023-01-15T11:43:55;4.18;;;1.00;;
68825;SDS011;55841;53.392;10.086;2023-01-15T11:46:25;3.70;;;0.85;;
68825;SDS011;55841;53.392;10.086;2023-01-15T11:48:55;9.50;;;1.50;;
68825;SDS011;55841;53.392;10.086;2023-01-15T11:51:21;4.55;;;1.13;;
68825;SDS011;55841;53.392;10.086;2023-01-15T11:53:48;6.28;;;1.27;;
68825;SDS011;55841;53.392;10.086;2023-01-15T11:56:16;6.05;;;1.27;;
68825;SDS011;55841;53.392;10.086;2023-01-15T11:58:48;6.90;;;1.58;;
68825;SDS011;55841;53.392;10.086;2023-01-15T12:01:26;4.88;;;1.10;;
68825;SDS011;55841;53.392;10.086;2023-01-15T12:03:57;3.70;;;0.80;;
68825;SDS011;55841;53.392;10.086;2023-01-15T12:06:24;6.18;;;1.27;;
68825;SDS011;55841;53.392;10.086;2023-01-15T12:09:06;7.78;;;1.17;;
68825;SDS011;55841;53.392;10.086;2023-01-15T12:12:01;5.13;;;0.95;;
68825;SDS011;55841;53.392;10.086;2023-01-15T12:16:55;3.53;;;1.50;;
68825;SDS011;55841;53.392;10.086;2023-01-15T12:22:29;7.00;;;1.20;;
68825;SDS011;55841;53.392;10.086;2023-01-15T12:30:34;5.22;;;1.60;;
68825;SDS011;55841;53.392;10.086;2023-01-15T12:33:14;7.43;;;1.33;;
68825;SDS011;55841;53.392;10.086;2023-01-15T12:35:49;2.42;;;0.57;;
68825;SDS011;55841;53.392;10.086;2023-01-15T12:38:23;7.55;;;1.67;;
68825;SDS011;55841;53.392;10.086;2023-01-15T12:41:14;5.80;;;1.65;;
68825;SDS011;55841;53.392;10.086;2023-01-15T12:43:48;8.43;;;1.23;;
68825;SDS011;55841;53.392;10.086;2023-01-15T12:46:22;7.28;;;1.58;;
68825;SDS011;55841;53.392;10.086;2023-01-15T12:54:22;4.88;;;1.73;;
68825;SDS011;55841;53.392;10.086;2023-01-15T12:56:57;7.82;;;1.30;;
68825;SDS011;55841;53.392;10.086;2023-01-15T13:04:49;6.18;;;1.10;;
68825;SDS011;55841;53.392;10.086;2023-01-15T13:07:23;6.50;;;1.80;;
68825;SDS011;55841;53.392;10.086;2023-01-15T13:12:43;7.38;;;1.38;;
68825;SDS011;55841;53.392;10.086;2023-01-15T13:15:12;7.40;;;1.38;;
68825;SDS011;55841;53.392;10.086;2023-01-15T13:20:24;6.20;;;1.35;;
68825;SDS011;55841;53.392;10.086;2023-01-15T13:23:07;7.78;;;1.38;;
68825;SDS011;55841;53.392;10.086;2023-01-15T13:31:45;1.73;;;0.88;;
68825;SDS011;55841;53.392;10.086;2023-01-15T13:34:22;3.85;;;0.95;;
68825;SDS011;55841;53.392;10.086;2023-01-15T13:36:54;5.63;;;1.23;;
68825;SDS011;55841;53.392;10.086;2023-01-15T13:39:25;7.43;;;1.30;;
68825;SDS011;55841;53.392;10.086;2023-01-15T13:42:00;3.72;;;0.93;;
68825;SDS011;55841;53.392;10.086;2023-01-15T13:44:30;7.05;;;1.10;;
68825;SDS011;55841;53.392;10.086;2023-01-15T13:46:59;6.95;;;1.50;;
68825;SDS011;55841;53.392;10.086;2023-01-15T13:49:32;8.60;;;1.20;;
68825;SDS011;55841;53.392;10.086;2023-01-15T13:52:00;3.58;;;1.00;;
68825;SDS011;55841;53.392;10.086;2023-01-15T13:54:28;4.88;;;1.17;;
68825;SDS011;55841;53.392;10.086;2023-01-15T13:57:09;6.95;;;1.63;;
68825;SDS011;55841;53.392;10.086;2023-01-15T13:59:48;7.40;;;1.20;;
68825;SDS011;55841;53.392;10.086;2023-01-15T14:02:33;5.53;;;1.25;;
68825;SDS011;55841;53.392;10.086;2023-01-15T14:05:12;7.53;;;1.42;;
68825;SDS011;55841;53.392;10.086;2023-01-15T14:07:51;9.38;;;2.28;;
68825;SDS011;55841;53.392;10.086;2023-01-15T14:29:14;4.05;;;1.25;;
68825;SDS011;55841;53.392;10.086;2023-01-15T14:35:09;10.80;;;2.05;;
68825;SDS011;55841;53.392;10.086;2023-01-15T14:40:22;5.20;;;0.90;;
68825;SDS011;55841;53.392;10.086;2023-01-15T14:42:55;4.50;;;1.33;;
68825;SDS011;55841;53.392;10.086;2023-01-15T14:47:54;6.97;;;1.50;;
68825;SDS011;55841;53.392;10.086;2023-01-15T14:50:25;9.32;;;1.60;;
68825;SDS011;55841;53.392;10.086;2023-01-15T14:53:01;9.55;;;1.95;;
68825;SDS011;55841;53.392;10.086;2023-01-15T14:55:37;6.97;;;1.10;;
68825;SDS011;55841;53.392;10.086;2023-01-15T14:58:14;5.47;;;1.40;;
68825;SDS011;55841;53.392;10.086;2023-01-15T15:01:03;6.78;;;1.45;;
68825;SDS011;55841;53.392;10.086;2023-01-15T15:03:39;8.35;;;1.63;;
68825;SDS011;55841;53.392;10.086;2023-01-15T15:06:22;15.00;;;1.30;;
68825;SDS011;55841;53.392;10.086;2023-01-15T15:08:50;5.68;;;1.15;;
68825;SDS011;55841;53.392;10.086;2023-01-15T15:11:30;8.77;;;1.45;;
68825;SDS011;55841;53.392;10.086;2023-01-15T15:14:02;4.47;;;1.17;;
68825;SDS011;55841;53.392;10.086;2023-01-15T15:16:30;6.88;;;1.17;;
68825;SDS011;55841;53.392;10.086;2023-01-15T15:19:01;5.65;;;1.30;;
68825;SDS011;55841;53.392;10.086;2023-01-15T15:21:36;5.28;;;1.02;;
68825;SDS011;55841;53.392;10.086;2023-01-15T15:24:15;5.82;;;1.30;;
68825;SDS011;55841;53.392;10.086;2023-01-15T15:26:52;8.50;;;1.30;;
68825;SDS011;55841;53.392;10.086;2023-01-15T15:29:18;4.30;;;0.93;;
68825;SDS011;55841;53.392;10.086;2023-01-15T15:31:46;2.30;;;0.63;;
68825;SDS011;55841;53.392;10.086;2023-01-15T15:34:17;10.75;;;1.35;;
68825;SDS011;55841;53.392;10.086;2023-01-15T15:36:55;6.18;;;1.40;;
68825;SDS011;55841;53.392;10.086;2023-01-15T15:39:24;3.13;;;0.60;;
68825;SDS011;55841;53.392;10.086;2023-01-15T15:41:58;6.50;;;0.95;;
68825;SDS011;55841;53.392;10.086;2023-01-15T15:44:30;6.05;;;1.30;;
68825;SDS011;55841;53.392;10.086;2023-01-15T15:47:22;4.22;;;1.10;;
68825;SDS011;55841;53.392;10.086;2023-01-15T15:49:49;6.85;;;1.75;;
68825;SDS011;55841;53.392;10.086;2023-01-15T15:52:19;7.72;;;1.55;;
68825;SDS011;55841;53.392;10.086;2023-01-15T15:54:55;5.07;;;1.10;;
68825;SDS011;55841;53.392;10.086;2023-01-15T15:57:25;2.30;;;1.00;;
68825;SDS011;55841;53.392;10.086;2023-01-15T15:59:53;3.33;;;0.80;;
68825;SDS011;55841;53.392;10.086;2023-01-15T16:05:14;4.50;;;1.13;;
68825;SDS011;55841;53.392;10.086;2023-01-15T16:07:46;5.75;;;1.20;;
68825;SDS011;55841;53.392;10.086;2023-01-15T16:10:13;6.18;;;1.52;;
68825;SDS011;55841;53.392;10.086;2023-01-15T16:12:56;6.75;;;1.50;;
68825;SDS011;55841;53.392;10.086;2023-01-15T16:15:26;5.43;;;1.23;;
68825;SDS011;55841;53.392;10.086;2023-01-15T16:17:57;5.90;;;1.48;;
68825;SDS011;55841;53.392;10.086;2023-01-15T16:20:25;5.40;;;1.13;;
68825;SDS011;55841;53.392;10.086;2023-01-15T16:22:56;5.50;;;1.40;;
68825;SDS011;55841;53.392;10.086;2023-01-15T16:25:24;4.22;;;1.15;;
68825;SDS011;55841;53.392;10.086;2023-01-15T16:27:56;2.80;;;1.00;;
68825;SDS011;55841;53.392;10.086;2023-01-15T16:30:22;4.32;;;1.23;;
68825;SDS011;55841;53.392;10.086;2023-01-15T16:32:48;8.80;;;1.73;;
68825;SDS011;55841;53.392;10.086;2023-01-15T16:35:17;8.00;;;1.60;;
68825;SDS011;55841;53.392;10.086;2023-01-15T16:37:54;5.00;;;1.23;;
68825;SDS011;55841;53.392;10.086;2023-01-15T16:40:30;4.60;;;1.27;;
68825;SDS011;55841;53.392;10.086;2023-01-15T16:43:07;3.85;;;1.00;;
68825;SDS011;55841;53.392;10.086;2023-01-15T16:45:59;4.18;;;1.35;;
68825;SDS011;55841;53.392;10.086;2023-01-15T16:48:38;4.68;;;1.30;;
68825;SDS011;55841;53.392;10.086;2023-01-15T16:53:59;5.57;;;1.20;;
68825;SDS011;55841;53.392;10.086;2023-01-15T16:59:01;6.40;;;1.38;;
68825;SDS011;55841;53.392;10.086;2023-01-15T17:01:47;5.85;;;0.95;;
68825;SDS011;55841;53.392;10.086;2023-01-15T17:07:00;3.00;;;1.17;;
68825;SDS011;55841;53.392;10.086;2023-01-15T17:09:29;3.08;;;1.10;;